createdAt,value
2022-10-17T00:02:30.164Z,84.46
2022-10-17T00:05:32.358Z,84.83
2022-10-17T00:08:34.963Z,85.07
2022-10-17T00:11:37.152Z,85.96
2022-10-17T00:14:39.391Z,86.69
2022-10-17T00:17:42.054Z,86.62
2022-10-17T00:20:44.216Z,86.47
2022-10-17T00:23:46.958Z,86.69
2022-10-17T00:26:49.109Z,86.30
2022-10-17T00:29:52.027Z,85.95
2022-10-17T00:32:54.196Z,86.24
2022-10-17T00:36:08.849Z,85.54
2022-10-17T00:39:11.037Z,85.80
2022-10-17T00:42:14.467Z,85.77
2022-10-17T00:45:30.934Z,86.81
2022-10-17T00:48:33.163Z,87.44
2022-10-17T00:51:45.109Z,88.66
2022-10-17T00:54:51.786Z,88.32
2022-10-17T00:57:54.136Z,88.11
2022-10-17T01:00:56.542Z,87.86
2022-10-17T01:03:58.858Z,88.37
2022-10-17T01:07:01.061Z,88.95
2022-10-17T01:10:05.366Z,89.58
2022-10-17T01:13:30.078Z,89.72
2022-10-17T01:16:48.858Z,89.71
2022-10-17T01:19:52.581Z,89.11
2022-10-17T01:23:16.960Z,88.84
2022-10-17T01:26:27.225Z,89.15
2022-10-17T01:29:41.508Z,89.00
2022-10-17T01:32:56.161Z,90.33
2022-10-17T01:36:33.375Z,90.23
2022-10-17T01:39:50.343Z,90.43
2022-10-17T01:42:59.457Z,90.18
2022-10-17T01:46:12.389Z,89.90
2022-10-17T01:49:17.359Z,89.60
2022-10-17T01:52:24.060Z,89.32
2022-10-17T01:55:32.247Z,89.16
2022-10-17T01:58:40.347Z,89.57
2022-10-17T02:01:44.986Z,89.64
2022-10-17T02:04:50.911Z,90.26
2022-10-17T02:07:53.110Z,90.61
2022-10-17T02:11:01.744Z,90.65
2022-10-17T02:14:38.231Z,90.74
2022-10-17T02:18:17.931Z,90.41
2022-10-17T02:21:52.427Z,90.62
2022-10-17T02:25:11.964Z,90.28
2022-10-17T02:28:21.616Z,90.31
2022-10-17T02:31:30.863Z,91.09
2022-10-17T02:34:42.916Z,92.07
2022-10-17T02:37:46.583Z,92.89
2022-10-17T02:40:51.608Z,92.37
2022-10-17T02:43:56.624Z,91.83
2022-10-17T02:47:12.703Z,92.23
2022-10-17T02:50:15.098Z,92.56
2022-10-17T02:53:36.593Z,91.88
2022-10-17T02:56:46.343Z,90.98
2022-10-17T02:59:56.605Z,90.82
2022-10-17T03:02:59.030Z,91.13
2022-10-17T03:06:01.283Z,91.07
2022-10-17T03:09:03.853Z,90.71
2022-10-17T03:12:06.307Z,91.29
2022-10-17T03:15:09.682Z,91.29
2022-10-17T03:18:12.567Z,91.41
2022-10-17T03:21:14.770Z,91.09
2022-10-17T03:24:17.631Z,91.03
2022-10-17T03:27:19.874Z,91.27
2022-10-17T03:30:22.179Z,91.29
2022-10-17T03:33:25.893Z,91.54
2022-10-17T03:36:28.250Z,91.22
2022-10-17T03:39:31.023Z,90.84
2022-10-17T03:42:33.403Z,90.98
2022-10-17T03:45:36.888Z,90.47
2022-10-17T03:48:39.343Z,90.25
2022-10-17T03:51:42.375Z,91.11
2022-10-17T03:54:49.969Z,90.75
2022-10-17T03:57:53.335Z,90.18
2022-10-17T04:00:57.089Z,90.50
2022-10-17T04:03:59.335Z,90.03
2022-10-17T04:07:05.537Z,90.32
2022-10-17T04:10:10.916Z,90.19
2022-10-17T04:13:14.708Z,90.77
2022-10-17T04:16:17.982Z,90.46
2022-10-17T04:19:27.638Z,90.66
2022-10-17T04:22:30.251Z,90.57
2022-10-17T04:25:36.015Z,90.48
2022-10-17T04:31:47.962Z,90.11
2022-10-17T04:34:57.307Z,89.90
2022-10-17T04:37:59.714Z,89.73
2022-10-17T04:41:05.345Z,89.72
2022-10-17T04:44:07.528Z,89.78
2022-10-17T04:47:13.894Z,89.89
2022-10-17T04:50:17.328Z,89.19
2022-10-17T04:53:39.307Z,89.64
2022-10-17T04:56:41.511Z,89.44
2022-10-17T04:59:43.957Z,89.12
2022-10-17T05:03:09.488Z,89.54
2022-10-17T05:06:17.825Z,89.47
2022-10-17T05:09:31.441Z,89.18
2022-10-17T05:12:33.716Z,88.46
2022-10-17T05:15:36.432Z,88.76
2022-10-17T05:18:38.748Z,88.58
2022-10-17T05:21:41.022Z,87.94
2022-10-17T05:24:43.234Z,87.42
2022-10-17T05:27:46.590Z,87.21
2022-10-17T05:30:50.646Z,86.22
2022-10-17T05:33:52.881Z,85.04
2022-10-17T05:36:55.040Z,83.04
2022-10-17T05:39:59.297Z,81.42
2022-10-17T05:43:01.782Z,79.92
2022-10-17T05:46:06.068Z,78.42
2022-10-17T05:49:14.961Z,78.06
2022-10-17T05:52:28.490Z,79.11
2022-10-17T05:56:03.911Z,78.99
2022-10-17T05:59:08.802Z,80.31
2022-10-17T06:02:37.443Z,78.79
2022-10-17T06:05:41.421Z,78.72
2022-10-17T06:08:47.822Z,77.39
2022-10-17T06:11:58.929Z,75.73
2022-10-17T06:15:01.853Z,76.78
2022-10-17T06:18:04.845Z,76.62
2022-10-17T06:21:15.767Z,77.83
2022-10-17T06:24:24.544Z,77.54
2022-10-17T06:27:31.952Z,77.49
2022-10-17T06:30:34.280Z,77.33
2022-10-17T06:33:39.984Z,74.97
2022-10-17T06:36:43.291Z,72.22
2022-10-17T06:39:48.142Z,70.38
2022-10-17T06:42:56.988Z,67.85
2022-10-17T06:46:23.366Z,66.14
2022-10-17T06:49:34.772Z,63.31
2022-10-17T06:52:58.818Z,62.09
2022-10-17T06:56:24.646Z,60.65
2022-10-17T06:59:37.384Z,60.07
2022-10-17T07:02:50.682Z,56.31
2022-10-17T07:05:55.031Z,55.71
2022-10-17T07:08:58.398Z,55.50
2022-10-17T07:12:05.317Z,53.51
2022-10-17T07:15:08.109Z,53.00
2022-10-17T07:18:12.995Z,55.66
2022-10-17T07:21:15.342Z,58.29
2022-10-17T07:24:17.998Z,60.05
2022-10-17T07:27:24.288Z,60.51
2022-10-17T07:30:37.777Z,61.94
2022-10-17T07:36:53.067Z,63.31
2022-10-17T07:39:56.619Z,61.91
2022-10-17T07:43:04.718Z,60.85
2022-10-17T07:46:11.500Z,59.74
2022-10-17T07:49:14.322Z,60.70
2022-10-17T07:52:17.665Z,61.17
2022-10-17T07:55:20.538Z,62.08
2022-10-17T07:58:26.080Z,62.62
2022-10-17T08:01:28.580Z,62.57
2022-10-17T08:04:36.806Z,62.85
2022-10-17T08:07:42.083Z,62.95
2022-10-17T08:10:44.349Z,62.07
2022-10-17T08:13:49.461Z,62.19
2022-10-17T08:16:57.650Z,62.26
2022-10-17T08:19:59.964Z,59.97
2022-10-17T08:23:05.231Z,58.75
2022-10-17T08:26:10.925Z,55.33
2022-10-17T08:29:16.883Z,53.62
2022-10-17T08:32:30.532Z,53.14
2022-10-17T08:35:33.261Z,54.05
2022-10-17T08:38:43.963Z,54.45
2022-10-17T08:42:01.247Z,56.59
2022-10-17T08:45:32.906Z,56.32
2022-10-17T08:48:45.557Z,57.16
2022-10-17T08:52:03.024Z,56.30
2022-10-17T08:55:15.629Z,56.15
2022-10-17T08:58:23.712Z,54.39
2022-10-17T09:02:13.290Z,54.19
2022-10-17T09:05:49.476Z,53.21
2022-10-17T09:09:14.687Z,54.31
2022-10-17T09:12:46.898Z,55.27
2022-10-17T09:16:09.475Z,55.40
2022-10-17T09:19:32.188Z,55.69
2022-10-17T09:22:41.486Z,55.13
2022-10-17T09:25:49.822Z,53.92
2022-10-17T09:28:56.170Z,54.68
2022-10-17T09:32:03.519Z,55.08
2022-10-17T09:35:18.092Z,53.97
2022-10-17T09:38:23.925Z,54.46
2022-10-17T09:41:48.170Z,51.97
2022-10-17T09:45:00.991Z,52.38
2022-10-17T09:48:28.822Z,53.79
2022-10-17T09:51:32.474Z,51.03
2022-10-17T09:54:47.179Z,51.34
2022-10-17T09:57:56.455Z,51.48
2022-10-17T10:01:22.709Z,50.21
2022-10-17T10:04:30.442Z,48.81
2022-10-17T10:07:40.140Z,47.99
2022-10-17T10:10:44.413Z,48.05
2022-10-17T10:13:50.591Z,46.48
2022-10-17T10:16:55.764Z,45.55
2022-10-17T10:19:58.150Z,46.08
2022-10-17T10:23:18.942Z,46.97
2022-10-17T10:26:40.266Z,46.64
2022-10-17T10:29:50.022Z,46.00
2022-10-17T10:32:52.286Z,44.57
2022-10-17T10:36:01.964Z,42.95
2022-10-17T10:39:04.990Z,41.89
2022-10-17T10:42:18.601Z,41.56
2022-10-17T10:45:48.120Z,38.73
2022-10-17T10:49:01.707Z,38.82
2022-10-17T10:52:11.764Z,37.06
2022-10-17T10:55:31.142Z,36.28
2022-10-17T10:58:51.824Z,35.33
2022-10-17T11:02:00.305Z,35.46
2022-10-17T11:05:45.396Z,33.96
2022-10-17T11:08:54.449Z,33.28
2022-10-17T11:12:07.295Z,33.20
2022-10-17T11:15:27.244Z,32.84
2022-10-17T11:18:42.958Z,32.59
2022-10-17T11:22:05.272Z,33.31
2022-10-17T11:25:28.907Z,32.11
2022-10-17T11:28:31.884Z,32.32
2022-10-17T11:31:38.885Z,31.40
2022-10-17T11:34:46.709Z,31.99
2022-10-17T11:38:01.389Z,31.53
2022-10-17T11:41:06.307Z,31.40
2022-10-17T11:44:37.167Z,31.46
2022-10-17T11:47:56.145Z,31.46
2022-10-17T11:54:38.146Z,30.96
2022-10-17T11:57:40.363Z,31.67
2022-10-17T12:01:24.013Z,30.80
2022-10-17T12:04:50.968Z,30.15
2022-10-17T12:08:42.609Z,31.71
2022-10-17T12:11:57.436Z,30.74
2022-10-17T12:15:20.732Z,28.93
2022-10-17T12:18:29.349Z,32.10
2022-10-17T12:21:57.427Z,31.56
2022-10-17T12:25:01.656Z,30.91
2022-10-17T12:28:06.396Z,32.28
2022-10-17T12:31:29.608Z,32.37
2022-10-17T12:34:34.906Z,31.74
2022-10-17T12:37:43.442Z,31.81
2022-10-17T12:40:49.033Z,30.84
2022-10-17T12:43:53.358Z,29.91
2022-10-17T12:47:27.884Z,30.44
2022-10-17T12:51:34.256Z,30.83
2022-10-17T12:54:47.206Z,30.88
2022-10-17T12:58:08.125Z,30.52
2022-10-17T13:01:24.105Z,29.32
2022-10-17T13:04:29.352Z,30.76
2022-10-17T13:07:34.350Z,30.44
2022-10-17T13:10:45.738Z,28.72
2022-10-17T13:13:52.637Z,28.34
2022-10-17T13:17:01.140Z,28.21
2022-10-17T13:20:03.961Z,29.75
2022-10-17T13:23:06.320Z,30.23
2022-10-17T13:26:20.778Z,30.74
2022-10-17T13:29:25.714Z,30.10
2022-10-17T13:32:36.655Z,29.40
2022-10-17T13:39:11.979Z,30.12
2022-10-17T13:42:45.701Z,30.20
2022-10-17T13:45:54.152Z,29.38
2022-10-17T13:49:04.582Z,30.51
2022-10-17T13:52:16.471Z,29.18
2022-10-17T13:55:20.316Z,29.46
2022-10-17T13:58:23.037Z,30.49
2022-10-17T14:01:28.871Z,29.75
2022-10-17T14:04:44.684Z,29.49
2022-10-17T14:08:11.168Z,28.72
2022-10-17T14:11:28.763Z,30.36
2022-10-17T14:14:46.220Z,31.34
2022-10-17T14:18:05.444Z,30.87
2022-10-17T14:24:35.601Z,30.55
2022-10-17T14:27:53.061Z,30.71
2022-10-17T14:31:28.840Z,31.48
2022-10-17T14:34:36.530Z,30.75
2022-10-17T14:37:43.926Z,31.79
2022-10-17T14:41:41.274Z,32.22
2022-10-17T14:44:36.352Z,33.30
2022-10-17T14:47:43.774Z,34.40
2022-10-17T14:51:07.094Z,34.46
2022-10-17T14:54:24.119Z,33.90
2022-10-17T14:57:42.678Z,35.08
2022-10-17T15:00:44.912Z,35.83
2022-10-17T15:03:47.146Z,38.24
2022-10-17T15:06:55.362Z,39.52
2022-10-17T15:09:57.579Z,40.48
2022-10-17T15:13:26.124Z,42.19
2022-10-17T15:16:30.725Z,41.10
2022-10-17T15:19:33.212Z,41.11
2022-10-17T15:22:36.591Z,42.87
2022-10-17T15:25:39.185Z,43.33
2022-10-17T15:28:41.436Z,44.58
2022-10-17T15:31:43.754Z,45.91
2022-10-17T15:34:46.114Z,46.09
2022-10-17T15:37:49.359Z,47.53
2022-10-17T15:40:52.047Z,51.11
2022-10-17T15:43:54.354Z,51.12
2022-10-17T15:46:57.280Z,51.53
2022-10-17T15:50:00.779Z,52.85
2022-10-17T15:53:05.520Z,53.60
2022-10-17T15:56:08.973Z,56.30
2022-10-17T15:59:15.147Z,57.98
2022-10-17T16:02:19.235Z,59.37
2022-10-17T16:05:25.537Z,59.24
2022-10-17T16:08:28.331Z,59.91
2022-10-17T16:11:34.369Z,61.12
2022-10-17T16:14:36.675Z,61.85
2022-10-17T16:17:38.832Z,61.65
2022-10-17T16:20:41.105Z,61.60
2022-10-17T16:23:43.914Z,62.35
2022-10-17T16:26:46.096Z,63.22
2022-10-17T16:29:48.234Z,64.06
2022-10-17T16:32:51.229Z,62.56
2022-10-17T16:35:53.359Z,63.26
2022-10-17T16:38:55.723Z,64.95
2022-10-17T16:41:58.696Z,64.72
2022-10-17T16:45:01.261Z,64.29
2022-10-17T16:48:03.514Z,64.47
2022-10-17T16:51:05.968Z,65.52
2022-10-17T16:54:08.839Z,66.92
2022-10-17T16:57:11.042Z,66.77
2022-10-17T17:00:14.996Z,66.57
2022-10-17T17:03:17.243Z,67.25
2022-10-17T17:06:23.086Z,67.46
2022-10-17T17:09:25.356Z,68.43
2022-10-17T17:12:27.486Z,68.44
2022-10-17T17:15:29.659Z,67.51
2022-10-17T17:18:31.874Z,67.27
2022-10-17T17:21:34.875Z,68.04
2022-10-17T17:24:37.054Z,67.95
2022-10-17T17:27:39.250Z,68.63
2022-10-17T17:30:41.392Z,68.84
2022-10-17T17:33:44.852Z,68.83
2022-10-17T17:36:47.179Z,68.68
2022-10-17T17:39:49.364Z,69.16
2022-10-17T17:42:51.544Z,70.30
2022-10-17T17:45:53.858Z,70.12
2022-10-17T17:48:56.689Z,70.79
2022-10-17T17:51:58.956Z,71.97
2022-10-17T17:55:01.212Z,73.28
2022-10-17T17:58:03.916Z,74.94
2022-10-17T18:01:12.259Z,76.82
2022-10-17T18:04:16.558Z,77.58
2022-10-17T18:07:18.748Z,77.82
2022-10-17T18:10:21.065Z,79.48
2022-10-17T18:13:23.189Z,80.07
2022-10-17T18:16:26.900Z,80.35
2022-10-17T18:19:29.107Z,80.83
2022-10-17T18:22:31.597Z,81.15
2022-10-17T18:25:34.118Z,80.12
2022-10-17T18:28:38.230Z,79.46
2022-10-17T18:31:40.820Z,80.28
2022-10-17T18:34:43.148Z,81.10
2022-10-17T18:37:45.273Z,80.74
2022-10-17T18:40:50.010Z,81.04
2022-10-17T18:43:54.695Z,81.20
2022-10-17T18:47:02.961Z,80.53
2022-10-17T18:50:06.687Z,80.87
2022-10-17T18:53:08.915Z,81.13
2022-10-17T18:56:12.007Z,81.53
2022-10-17T18:59:14.177Z,81.40
2022-10-17T19:02:16.395Z,81.83
2022-10-17T19:05:18.737Z,81.65
2022-10-17T19:08:20.862Z,81.59
2022-10-17T19:11:25.238Z,82.03
2022-10-17T19:14:28.637Z,81.25
2022-10-17T19:17:31.017Z,81.55
2022-10-17T19:20:33.433Z,81.53
2022-10-17T19:23:36.526Z,81.39
2022-10-17T19:26:46.161Z,82.24
2022-10-17T19:29:48.440Z,83.78
2022-10-17T19:32:56.775Z,85.44
2022-10-17T19:36:01.038Z,85.28
2022-10-17T19:39:06.790Z,84.50
2022-10-17T19:42:08.980Z,84.43
2022-10-17T19:45:11.217Z,85.34
2022-10-17T19:48:13.401Z,85.67
2022-10-17T19:51:17.951Z,85.70
2022-10-17T19:54:20.454Z,85.99
2022-10-17T19:57:25.573Z,85.20
2022-10-17T20:00:28.341Z,85.88
2022-10-17T20:03:30.496Z,85.89
2022-10-17T20:06:33.638Z,85.90
2022-10-17T20:09:35.870Z,85.52
2022-10-17T20:12:38.070Z,85.92
2022-10-17T20:15:40.542Z,87.03
2022-10-17T20:18:43.404Z,87.22
2022-10-17T20:21:45.570Z,86.69
2022-10-17T20:24:47.792Z,86.81
2022-10-17T20:27:49.963Z,88.01
2022-10-17T20:30:52.167Z,87.37
2022-10-17T20:33:56.056Z,86.79
2022-10-17T20:36:58.233Z,86.43
2022-10-17T20:40:29.460Z,86.84
2022-10-17T20:43:22.584Z,86.61
2022-10-17T20:46:36.519Z,86.71
2022-10-17T20:49:46.141Z,87.12
2022-10-17T20:52:48.282Z,88.28
2022-10-17T20:56:01.787Z,88.40
2022-10-17T20:59:11.386Z,88.38
2022-10-17T21:02:14.203Z,87.74
2022-10-17T21:05:16.749Z,88.06
2022-10-17T21:08:18.938Z,89.10
2022-10-17T21:11:23.245Z,89.48
2022-10-17T21:14:25.659Z,88.30
2022-10-17T21:17:28.291Z,88.46
2022-10-17T21:20:30.643Z,88.06
2022-10-17T21:23:32.779Z,87.85
2022-10-17T21:26:37.614Z,87.83
2022-10-17T21:29:39.742Z,87.69
2022-10-17T21:32:57.086Z,88.06
2022-10-17T21:35:59.400Z,88.41
2022-10-17T21:39:01.714Z,88.84
2022-10-17T21:42:04.003Z,89.36
2022-10-17T21:45:15.104Z,89.33
2022-10-17T21:48:18.150Z,89.49
2022-10-17T21:51:23.497Z,88.80
2022-10-17T21:54:26.389Z,88.73
2022-10-17T21:57:29.594Z,88.10
2022-10-17T22:00:31.757Z,87.27
2022-10-17T22:03:35.250Z,87.49
2022-10-17T22:06:40.563Z,86.81
2022-10-17T22:09:43.289Z,87.12
2022-10-17T22:12:45.443Z,87.23
2022-10-17T22:15:47.653Z,87.33
2022-10-17T22:18:50.211Z,88.47
2022-10-17T22:21:53.021Z,89.21
2022-10-17T22:24:55.157Z,89.29
2022-10-17T22:27:57.333Z,87.47
2022-10-17T22:30:59.461Z,87.50
2022-10-17T22:34:01.897Z,89.22
2022-10-17T22:37:04.205Z,90.52
2022-10-17T22:40:07.244Z,88.85
2022-10-17T22:43:09.389Z,89.09
2022-10-17T22:46:13.796Z,88.83
2022-10-17T22:49:15.930Z,91.10
2022-10-17T22:52:18.114Z,90.41
2022-10-17T22:55:20.319Z,89.44
2022-10-17T22:58:23.499Z,89.34
2022-10-17T23:01:26.195Z,88.44
2022-10-17T23:04:28.424Z,88.50
2022-10-17T23:07:30.841Z,89.57
2022-10-17T23:10:33.653Z,89.21
2022-10-17T23:13:36.629Z,88.72
2022-10-17T23:16:38.863Z,88.74
2022-10-17T23:19:41.019Z,88.48
2022-10-17T23:22:43.228Z,89.65
2022-10-17T23:25:45.857Z,89.77
2022-10-17T23:28:48.124Z,89.69
2022-10-17T23:31:53.845Z,89.19
2022-10-17T23:34:56.022Z,89.13
2022-10-17T23:37:58.211Z,89.44
2022-10-17T23:41:00.443Z,90.29
2022-10-17T23:44:02.933Z,89.19
2022-10-17T23:47:05.122Z,88.49
2022-10-17T23:50:07.739Z,89.03
2022-10-17T23:53:10.211Z,89.24
2022-10-17T23:56:12.647Z,89.28
2022-10-17T23:59:14.894Z,89.53
